sensor_id;sensor_type;location;lat;lon;timestamp;pressure;altitude;pressure_sealevel;temperature;humidity
34065;BME280;20339;49.754;20.158;2023-07-08T00:01:15;97311.11;;;16.53;55.78
34065;BME280;20339;49.754;20.158;2023-07-08T00:03:50;97307.32;;;16.55;55.73
34065;BME280;20339;49.754;20.158;2023-07-08T00:06:25;97308.00;;;16.53;55.73
34065;BME280;20339;49.754;20.158;2023-07-08T00:08:57;97311.12;;;16.50;55.62
34065;BME280;20339;49.754;20.158;2023-07-08T00:11:28;97310.95;;;16.47;55.53
34065;BME280;20339;49.754;20.158;2023-07-08T00:13:59;97317.28;;;16.46;55.63
34065;BME280;20339;49.754;20.158;2023-07-08T00:16:31;97317.66;;;16.43;55.66
34065;BME280;20339;49.754;20.158;2023-07-08T00:19:03;97318.36;;;16.40;55.78
34065;BME280;20339;49.754;20.158;2023-07-08T00:21:38;97315.33;;;16.43;55.78
34065;BME280;20339;49.754;20.158;2023-07-08T00:24:10;97314.92;;;16.42;55.68
34065;BME280;20339;49.754;20.158;2023-07-08T00:26:41;97317.28;;;16.39;55.86
34065;BME280;20339;49.754;20.158;2023-07-08T00:29:17;97316.27;;;16.37;55.91
34065;BME280;20339;49.754;20.158;2023-07-08T00:31:48;97314.71;;;16.33;55.98
34065;BME280;20339;49.754;20.158;2023-07-08T00:34:19;97318.65;;;16.31;56.06
34065;BME280;20339;49.754;20.158;2023-07-08T00:36:50;97319.24;;;16.26;55.91
34065;BME280;20339;49.754;20.158;2023-07-08T00:39:22;97320.70;;;16.20;56.05
34065;BME280;20339;49.754;20.158;2023-07-08T00:41:54;97313.52;;;16.17;56.11
34065;BME280;20339;49.754;20.158;2023-07-08T00:44:27;97305.05;;;16.13;56.20
34065;BME280;20339;49.754;20.158;2023-07-08T00:47:04;97305.56;;;16.11;56.27
34065;BME280;20339;49.754;20.158;2023-07-08T00:49:42;97301.18;;;16.11;56.39
34065;BME280;20339;49.754;20.158;2023-07-08T00:52:23;97306.23;;;16.15;56.40
34065;BME280;20339;49.754;20.158;2023-07-08T00:54:56;97306.70;;;16.19;56.44
34065;BME280;20339;49.754;20.158;2023-07-08T00:57:31;97306.13;;;16.17;56.41
34065;BME280;20339;49.754;20.158;2023-07-08T01:00:10;97302.00;;;16.17;56.36
34065;BME280;20339;49.754;20.158;2023-07-08T01:02:48;97301.00;;;16.14;56.50
34065;BME280;20339;49.754;20.158;2023-07-08T01:05:25;97300.45;;;16.15;56.49
34065;BME280;20339;49.754;20.158;2023-07-08T01:08:02;97299.77;;;16.17;56.51
34065;BME280;20339;49.754;20.158;2023-07-08T01:10:42;97299.28;;;16.15;56.49
34065;BME280;20339;49.754;20.158;2023-07-08T01:13:16;97298.98;;;16.14;56.66
34065;BME280;20339;49.754;20.158;2023-07-08T01:15:49;97295.04;;;16.13;56.61
34065;BME280;20339;49.754;20.158;2023-07-08T01:18:23;97298.08;;;16.11;56.60
34065;BME280;20339;49.754;20.158;2023-07-08T01:21:00;97300.37;;;16.05;56.54
34065;BME280;20339;49.754;20.158;2023-07-08T01:23:35;97303.09;;;16.02;56.73
34065;BME280;20339;49.754;20.158;2023-07-08T01:26:09;97297.33;;;16.04;56.83
34065;BME280;20339;49.754;20.158;2023-07-08T01:28:40;97297.23;;;16.03;56.79
34065;BME280;20339;49.754;20.158;2023-07-08T01:31:11;97299.98;;;16.00;56.76
34065;BME280;20339;49.754;20.158;2023-07-08T01:33:44;97297.69;;;15.97;56.95
34065;BME280;20339;49.754;20.158;2023-07-08T01:36:17;97290.89;;;15.97;57.00
34065;BME280;20339;49.754;20.158;2023-07-08T01:38:48;97290.52;;;15.97;56.91
34065;BME280;20339;49.754;20.158;2023-07-08T01:41:22;97292.75;;;15.95;57.09
34065;BME280;20339;49.754;20.158;2023-07-08T01:43:55;97293.18;;;15.97;57.02
34065;BME280;20339;49.754;20.158;2023-07-08T01:46:27;97294.92;;;15.98;57.14
34065;BME280;20339;49.754;20.158;2023-07-08T01:49:00;97294.64;;;16.00;57.03
34065;BME280;20339;49.754;20.158;2023-07-08T01:51:35;97299.52;;;15.97;56.97
34065;BME280;20339;49.754;20.158;2023-07-08T01:54:08;97295.55;;;15.94;57.10
34065;BME280;20339;49.754;20.158;2023-07-08T01:56:40;97296.55;;;15.95;57.19
34065;BME280;20339;49.754;20.158;2023-07-08T01:59:12;97290.10;;;15.97;57.22
34065;BME280;20339;49.754;20.158;2023-07-08T02:01:45;97287.93;;;16.00;57.33
34065;BME280;20339;49.754;20.158;2023-07-08T02:04:19;97288.75;;;16.00;57.25
34065;BME280;20339;49.754;20.158;2023-07-08T02:06:55;97290.42;;;16.00;57.19
34065;BME280;20339;49.754;20.158;2023-07-08T02:09:27;97293.46;;;16.00;57.21
34065;BME280;20339;49.754;20.158;2023-07-08T02:12:00;97291.44;;;15.99;57.23
34065;BME280;20339;49.754;20.158;2023-07-08T02:14:32;97288.98;;;16.00;57.26
34065;BME280;20339;49.754;20.158;2023-07-08T02:17:04;97286.08;;;16.00;57.19
34065;BME280;20339;49.754;20.158;2023-07-08T02:19:36;97287.38;;;15.99;57.36
34065;BME280;20339;49.754;20.158;2023-07-08T02:22:09;97292.98;;;15.97;57.25
34065;BME280;20339;49.754;20.158;2023-07-08T02:24:40;97293.27;;;15.93;57.33
34065;BME280;20339;49.754;20.158;2023-07-08T02:27:12;97295.83;;;15.91;57.33
34065;BME280;20339;49.754;20.158;2023-07-08T02:29:43;97292.19;;;15.90;57.39
34065;BME280;20339;49.754;20.158;2023-07-08T02:32:16;97294.98;;;15.91;57.53
34065;BME280;20339;49.754;20.158;2023-07-08T02:34:48;97298.34;;;15.88;57.49
34065;BME280;20339;49.754;20.158;2023-07-08T02:37:21;97299.45;;;15.83;57.62
34065;BME280;20339;49.754;20.158;2023-07-08T02:39:52;97299.63;;;15.82;57.62
34065;BME280;20339;49.754;20.158;2023-07-08T02:42:24;97308.27;;;15.80;57.74
34065;BME280;20339;49.754;20.158;2023-07-08T02:44:55;97307.74;;;15.80;57.78
34065;BME280;20339;49.754;20.158;2023-07-08T02:47:26;97304.84;;;15.81;57.78
34065;BME280;20339;49.754;20.158;2023-07-08T02:49:57;97302.45;;;15.80;57.77
34065;BME280;20339;49.754;20.158;2023-07-08T02:52:28;97307.61;;;15.74;57.83
34065;BME280;20339;49.754;20.158;2023-07-08T02:54:59;97310.33;;;15.69;57.85
34065;BME280;20339;49.754;20.158;2023-07-08T02:57:31;97313.67;;;15.67;58.08
34065;BME280;20339;49.754;20.158;2023-07-08T03:00:02;97317.81;;;15.69;57.99
34065;BME280;20339;49.754;20.158;2023-07-08T03:02:36;97314.73;;;15.71;58.05
34065;BME280;20339;49.754;20.158;2023-07-08T03:05:08;97313.32;;;15.74;58.09
34065;BME280;20339;49.754;20.158;2023-07-08T03:07:39;97318.38;;;15.70;57.99
34065;BME280;20339;49.754;20.158;2023-07-08T03:10:11;97318.64;;;15.60;58.02
34065;BME280;20339;49.754;20.158;2023-07-08T03:12:42;97317.20;;;15.60;58.26
34065;BME280;20339;49.754;20.158;2023-07-08T03:15:13;97315.85;;;15.62;58.36
34065;BME280;20339;49.754;20.158;2023-07-08T03:17:45;97319.77;;;15.67;58.47
34065;BME280;20339;49.754;20.158;2023-07-08T03:20:16;97322.67;;;15.69;58.42
34065;BME280;20339;49.754;20.158;2023-07-08T03:22:47;97323.15;;;15.72;58.48
34065;BME280;20339;49.754;20.158;2023-07-08T03:25:18;97324.56;;;15.73;58.56
34065;BME280;20339;49.754;20.158;2023-07-08T03:27:50;97327.27;;;15.76;58.54
34065;BME280;20339;49.754;20.158;2023-07-08T03:30:27;97325.71;;;15.80;58.58
34065;BME280;20339;49.754;20.158;2023-07-08T03:32:58;97329.30;;;15.82;58.55
34065;BME280;20339;49.754;20.158;2023-07-08T03:35:30;97327.93;;;15.84;58.73
34065;BME280;20339;49.754;20.158;2023-07-08T03:38:01;97325.52;;;15.83;58.73
34065;BME280;20339;49.754;20.158;2023-07-08T03:40:33;97327.67;;;15.86;58.78
34065;BME280;20339;49.754;20.158;2023-07-08T03:43:04;97325.84;;;15.87;58.77
34065;BME280;20339;49.754;20.158;2023-07-08T03:45:36;97326.11;;;15.89;58.79
34065;BME280;20339;49.754;20.158;2023-07-08T03:48:07;97325.19;;;15.91;58.78
34065;BME280;20339;49.754;20.158;2023-07-08T03:50:40;97321.52;;;15.93;58.72
34065;BME280;20339;49.754;20.158;2023-07-08T03:53:11;97320.00;;;15.94;58.84
34065;BME280;20339;49.754;20.158;2023-07-08T03:55:43;97316.23;;;15.98;58.90
34065;BME280;20339;49.754;20.158;2023-07-08T03:58:14;97316.36;;;15.99;58.83
34065;BME280;20339;49.754;20.158;2023-07-08T04:00:46;97320.17;;;16.01;58.99
34065;BME280;20339;49.754;20.158;2023-07-08T04:03:18;97318.02;;;16.06;59.01
34065;BME280;20339;49.754;20.158;2023-07-08T04:05:49;97318.98;;;16.09;58.99
34065;BME280;20339;49.754;20.158;2023-07-08T04:08:20;97311.91;;;16.13;58.95
34065;BME280;20339;49.754;20.158;2023-07-08T04:10:51;97310.27;;;16.16;59.04
34065;BME280;20339;49.754;20.158;2023-07-08T04:13:22;97305.49;;;16.20;58.88
34065;BME280;20339;49.754;20.158;2023-07-08T04:15:57;97310.58;;;16.25;58.87
34065;BME280;20339;49.754;20.158;2023-07-08T04:18:31;97302.05;;;16.29;58.93
34065;BME280;20339;49.754;20.158;2023-07-08T04:21:03;97304.12;;;16.33;58.88
34065;BME280;20339;49.754;20.158;2023-07-08T04:23:34;97301.44;;;16.37;58.79
34065;BME280;20339;49.754;20.158;2023-07-08T04:26:05;97300.62;;;16.42;58.86
34065;BME280;20339;49.754;20.158;2023-07-08T04:28:36;97298.77;;;16.47;58.75
34065;BME280;20339;49.754;20.158;2023-07-08T04:31:07;97301.23;;;16.50;58.71
34065;BME280;20339;49.754;20.158;2023-07-08T04:33:40;97298.50;;;16.52;58.79
34065;BME280;20339;49.754;20.158;2023-07-08T04:36:14;97300.27;;;16.55;58.62
34065;BME280;20339;49.754;20.158;2023-07-08T04:38:45;97302.55;;;16.57;58.79
34065;BME280;20339;49.754;20.158;2023-07-08T04:41:17;97301.58;;;16.60;58.79
34065;BME280;20339;49.754;20.158;2023-07-08T04:43:49;97303.95;;;16.65;58.85
34065;BME280;20339;49.754;20.158;2023-07-08T04:46:31;97308.23;;;16.70;58.85
34065;BME280;20339;49.754;20.158;2023-07-08T04:49:04;97304.01;;;16.74;58.71
34065;BME280;20339;49.754;20.158;2023-07-08T04:51:36;97307.55;;;16.79;58.70
34065;BME280;20339;49.754;20.158;2023-07-08T04:54:09;97305.66;;;16.86;58.72
34065;BME280;20339;49.754;20.158;2023-07-08T04:56:42;97304.58;;;16.94;58.74
34065;BME280;20339;49.754;20.158;2023-07-08T04:59:15;97304.50;;;17.03;58.62
34065;BME280;20339;49.754;20.158;2023-07-08T05:01:46;97299.80;;;17.11;58.48
34065;BME280;20339;49.754;20.158;2023-07-08T05:04:19;97301.92;;;17.17;58.40
34065;BME280;20339;49.754;20.158;2023-07-08T05:06:51;97302.50;;;17.25;58.31
34065;BME280;20339;49.754;20.158;2023-07-08T05:09:23;97300.80;;;17.35;58.45
34065;BME280;20339;49.754;20.158;2023-07-08T05:11:55;97300.79;;;17.47;58.11
34065;BME280;20339;49.754;20.158;2023-07-08T05:14:27;97302.70;;;17.59;58.22
34065;BME280;20339;49.754;20.158;2023-07-08T05:16:59;97295.66;;;17.75;58.29
34065;BME280;20339;49.754;20.158;2023-07-08T05:19:31;97296.30;;;17.96;58.32
34065;BME280;20339;49.754;20.158;2023-07-08T05:22:02;97295.67;;;18.40;59.14
34065;BME280;20339;49.754;20.158;2023-07-08T05:24:34;97300.23;;;19.80;60.21
34065;BME280;20339;49.754;20.158;2023-07-08T05:27:07;97298.41;;;21.71;58.69
34065;BME280;20339;49.754;20.158;2023-07-08T05:29:39;97293.79;;;23.41;56.96
34065;BME280;20339;49.754;20.158;2023-07-08T05:32:14;97293.36;;;24.79;54.29
34065;BME280;20339;49.754;20.158;2023-07-08T05:34:52;97294.45;;;25.91;52.35
34065;BME280;20339;49.754;20.158;2023-07-08T05:37:24;97291.80;;;26.72;50.44
34065;BME280;20339;49.754;20.158;2023-07-08T05:39:58;97292.64;;;27.38;48.79
34065;BME280;20339;49.754;20.158;2023-07-08T05:42:33;97292.64;;;27.79;47.33
34065;BME280;20339;49.754;20.158;2023-07-08T05:45:05;97292.60;;;28.15;46.12
34065;BME280;20339;49.754;20.158;2023-07-08T05:47:37;97291.80;;;28.49;44.98
34065;BME280;20339;49.754;20.158;2023-07-08T05:50:09;97291.69;;;28.66;44.32
34065;BME280;20339;49.754;20.158;2023-07-08T05:52:41;97291.39;;;28.90;43.76
34065;BME280;20339;49.754;20.158;2023-07-08T05:55:13;97299.81;;;29.05;43.23
34065;BME280;20339;49.754;20.158;2023-07-08T05:57:44;97297.28;;;29.13;42.57
34065;BME280;20339;49.754;20.158;2023-07-08T06:00:16;97297.96;;;29.27;42.37
34065;BME280;20339;49.754;20.158;2023-07-08T06:02:47;97300.99;;;29.41;41.76
34065;BME280;20339;49.754;20.158;2023-07-08T06:05:19;97300.19;;;29.51;41.25
34065;BME280;20339;49.754;20.158;2023-07-08T06:07:50;97302.41;;;29.64;40.86
34065;BME280;20339;49.754;20.158;2023-07-08T06:10:22;97304.26;;;29.80;40.48
34065;BME280;20339;49.754;20.158;2023-07-08T06:12:55;97306.49;;;30.05;40.03
34065;BME280;20339;49.754;20.158;2023-07-08T06:15:29;97302.23;;;30.20;39.73
34065;BME280;20339;49.754;20.158;2023-07-08T06:18:10;97300.19;;;30.42;39.36
34065;BME280;20339;49.754;20.158;2023-07-08T06:20:50;97295.97;;;30.66;38.81
34065;BME280;20339;49.754;20.158;2023-07-08T06:23:25;97296.11;;;30.84;39.00
34065;BME280;20339;49.754;20.158;2023-07-08T06:26:00;97293.05;;;30.85;38.57
34065;BME280;20339;49.754;20.158;2023-07-08T06:28:31;97294.48;;;30.69;38.25
34065;BME280;20339;49.754;20.158;2023-07-08T06:31:11;97291.19;;;30.77;38.00
34065;BME280;20339;49.754;20.158;2023-07-08T06:33:43;97297.28;;;30.82;37.66
34065;BME280;20339;49.754;20.158;2023-07-08T06:36:19;97302.87;;;31.01;37.29
34065;BME280;20339;49.754;20.158;2023-07-08T06:38:55;97302.28;;;31.14;36.75
34065;BME280;20339;49.754;20.158;2023-07-08T06:41:27;97304.40;;;31.10;36.50
34065;BME280;20339;49.754;20.158;2023-07-08T06:43:59;97298.93;;;31.07;36.34
34065;BME280;20339;49.754;20.158;2023-07-08T06:46:40;97300.65;;;31.08;36.15
34065;BME280;20339;49.754;20.158;2023-07-08T06:49:15;97300.10;;;31.09;35.63
34065;BME280;20339;49.754;20.158;2023-07-08T06:51:49;97296.74;;;31.06;35.50
34065;BME280;20339;49.754;20.158;2023-07-08T06:54:39;97299.92;;;30.88;35.57
34065;BME280;20339;49.754;20.158;2023-07-08T06:57:11;97300.41;;;30.82;35.91
34065;BME280;20339;49.754;20.158;2023-07-08T06:59:48;97294.55;;;30.85;35.83
34065;BME280;20339;49.754;20.158;2023-07-08T07:02:35;97297.69;;;30.70;35.15
34065;BME280;20339;49.754;20.158;2023-07-08T07:05:09;97295.34;;;30.58;35.04
34065;BME280;20339;49.754;20.158;2023-07-08T07:07:47;97297.36;;;30.52;34.90
34065;BME280;20339;49.754;20.158;2023-07-08T07:10:22;97289.86;;;30.54;34.91
34065;BME280;20339;49.754;20.158;2023-07-08T07:12:55;97290.19;;;30.41;33.88
34065;BME280;20339;49.754;20.158;2023-07-08T07:15:28;97288.94;;;30.35;33.37
34065;BME280;20339;49.754;20.158;2023-07-08T07:18:06;97285.03;;;30.40;33.06
34065;BME280;20339;49.754;20.158;2023-07-08T07:20:46;97287.45;;;30.39;32.93
34065;BME280;20339;49.754;20.158;2023-07-08T07:23:21;97288.96;;;29.94;32.38
34065;BME280;20339;49.754;20.158;2023-07-08T07:25:54;97284.36;;;29.39;32.41
34065;BME280;20339;49.754;20.158;2023-07-08T07:28:30;97286.77;;;29.01;32.04
34065;BME280;20339;49.754;20.158;2023-07-08T07:31:03;97284.91;;;28.70;31.95
34065;BME280;20339;49.754;20.158;2023-07-08T07:33:36;97284.33;;;28.73;32.24
34065;BME280;20339;49.754;20.158;2023-07-08T07:36:13;97288.73;;;28.70;32.44
34065;BME280;20339;49.754;20.158;2023-07-08T07:38:54;97291.15;;;28.82;32.67
34065;BME280;20339;49.754;20.158;2023-07-08T07:41:36;97290.80;;;28.86;32.83
34065;BME280;20339;49.754;20.158;2023-07-08T07:44:08;97296.20;;;29.16;33.25
34065;BME280;20339;49.754;20.158;2023-07-08T07:46:42;97295.08;;;29.28;32.67
34065;BME280;20339;49.754;20.158;2023-07-08T07:49:16;97297.13;;;28.98;31.89
34065;BME280;20339;49.754;20.158;2023-07-08T07:51:49;97294.89;;;28.81;32.05
34065;BME280;20339;49.754;20.158;2023-07-08T07:54:20;97295.28;;;28.46;31.61
34065;BME280;20339;49.754;20.158;2023-07-08T07:56:56;97292.52;;;28.24;31.76
34065;BME280;20339;49.754;20.158;2023-07-08T07:59:28;97290.08;;;28.14;31.82
34065;BME280;20339;49.754;20.158;2023-07-08T08:02:01;97285.73;;;28.16;31.83
34065;BME280;20339;49.754;20.158;2023-07-08T08:04:32;97288.77;;;28.06;31.31
34065;BME280;20339;49.754;20.158;2023-07-08T08:07:05;97289.34;;;27.92;31.22
34065;BME280;20339;49.754;20.158;2023-07-08T08:09:38;97290.11;;;27.74;31.52
34065;BME280;20339;49.754;20.158;2023-07-08T08:12:11;97291.75;;;27.68;31.88
34065;BME280;20339;49.754;20.158;2023-07-08T08:14:43;97291.55;;;27.71;32.01
34065;BME280;20339;49.754;20.158;2023-07-08T08:17:14;97291.54;;;27.86;32.66
34065;BME280;20339;49.754;20.158;2023-07-08T08:19:48;97292.77;;;28.08;32.78
34065;BME280;20339;49.754;20.158;2023-07-08T08:22:19;97292.41;;;28.20;32.47
34065;BME280;20339;49.754;20.158;2023-07-08T08:24:55;97293.66;;;28.21;32.46
34065;BME280;20339;49.754;20.158;2023-07-08T08:27:26;97290.51;;;28.08;32.13
34065;BME280;20339;49.754;20.158;2023-07-08T08:29:58;97287.86;;;28.00;32.83
34065;BME280;20339;49.754;20.158;2023-07-08T08:32:30;97288.67;;;28.13;33.21
34065;BME280;20339;49.754;20.158;2023-07-08T08:35:01;97288.89;;;28.13;33.90
34065;BME280;20339;49.754;20.158;2023-07-08T08:37:33;97287.80;;;28.18;33.77
34065;BME280;20339;49.754;20.158;2023-07-08T08:40:13;97288.36;;;28.21;34.45
34065;BME280;20339;49.754;20.158;2023-07-08T08:42:53;97285.02;;;28.03;33.21
34065;BME280;20339;49.754;20.158;2023-07-08T08:45:34;97288.30;;;27.65;33.37
34065;BME280;20339;49.754;20.158;2023-07-08T08:48:13;97283.20;;;27.50;33.56
34065;BME280;20339;49.754;20.158;2023-07-08T08:50:52;97281.62;;;27.47;34.07
34065;BME280;20339;49.754;20.158;2023-07-08T08:53:27;97277.86;;;27.38;34.49
34065;BME280;20339;49.754;20.158;2023-07-08T08:56:03;97280.14;;;27.33;34.35
34065;BME280;20339;49.754;20.158;2023-07-08T08:58:39;97274.09;;;27.16;33.81
34065;BME280;20339;49.754;20.158;2023-07-08T09:01:15;97277.20;;;26.88;34.22
34065;BME280;20339;49.754;20.158;2023-07-08T09:03:52;97274.52;;;26.53;33.99
34065;BME280;20339;49.754;20.158;2023-07-08T09:06:28;97276.55;;;26.29;34.53
34065;BME280;20339;49.754;20.158;2023-07-08T09:09:03;97274.55;;;26.07;34.48
34065;BME280;20339;49.754;20.158;2023-07-08T09:11:42;97275.42;;;25.81;34.69
34065;BME280;20339;49.754;20.158;2023-07-08T09:14:22;97276.38;;;25.62;34.91
34065;BME280;20339;49.754;20.158;2023-07-08T09:17:09;97273.28;;;25.50;34.99
34065;BME280;20339;49.754;20.158;2023-07-08T09:19:52;97277.39;;;25.47;35.73
34065;BME280;20339;49.754;20.158;2023-07-08T09:22:31;97274.62;;;25.60;36.33
34065;BME280;20339;49.754;20.158;2023-07-08T09:25:17;97279.54;;;25.65;35.93
34065;BME280;20339;49.754;20.158;2023-07-08T09:27:51;97277.20;;;25.48;36.19
34065;BME280;20339;49.754;20.158;2023-07-08T09:30:36;97281.17;;;25.37;36.90
34065;BME280;20339;49.754;20.158;2023-07-08T09:33:26;97276.95;;;25.34;37.14
34065;BME280;20339;49.754;20.158;2023-07-08T09:36:18;97275.26;;;25.40;37.14
34065;BME280;20339;49.754;20.158;2023-07-08T09:38:53;97271.95;;;25.50;37.36
34065;BME280;20339;49.754;20.158;2023-07-08T09:41:33;97267.42;;;25.61;37.73
34065;BME280;20339;49.754;20.158;2023-07-08T09:44:12;97267.02;;;25.67;37.01
34065;BME280;20339;49.754;20.158;2023-07-08T09:46:46;97266.64;;;25.60;36.78
34065;BME280;20339;49.754;20.158;2023-07-08T09:49:30;97266.44;;;25.50;36.92
34065;BME280;20339;49.754;20.158;2023-07-08T09:52:05;97270.87;;;25.42;36.78
34065;BME280;20339;49.754;20.158;2023-07-08T09:54:37;97262.64;;;25.49;37.09
34065;BME280;20339;49.754;20.158;2023-07-08T09:57:18;97265.32;;;25.60;37.11
34065;BME280;20339;49.754;20.158;2023-07-08T09:59:55;97263.88;;;25.65;37.04
34065;BME280;20339;49.754;20.158;2023-07-08T10:02:38;97262.45;;;25.72;37.34
34065;BME280;20339;49.754;20.158;2023-07-08T10:05:22;97257.77;;;25.79;37.11
34065;BME280;20339;49.754;20.158;2023-07-08T10:07:56;97258.25;;;25.88;37.37
34065;BME280;20339;49.754;20.158;2023-07-08T10:10:32;97260.75;;;25.85;36.27
34065;BME280;20339;49.754;20.158;2023-07-08T10:13:11;97257.03;;;25.57;36.02
34065;BME280;20339;49.754;20.158;2023-07-08T10:15:50;97262.80;;;25.41;35.86
34065;BME280;20339;49.754;20.158;2023-07-08T10:18:28;97260.90;;;25.27;35.81
34065;BME280;20339;49.754;20.158;2023-07-08T10:21:08;97263.38;;;25.32;36.44
34065;BME280;20339;49.754;20.158;2023-07-08T10:23:50;97258.60;;;25.21;36.00
34065;BME280;20339;49.754;20.158;2023-07-08T10:26:27;97261.35;;;25.15;36.23
34065;BME280;20339;49.754;20.158;2023-07-08T10:29:15;97258.40;;;25.19;36.82
34065;BME280;20339;49.754;20.158;2023-07-08T10:31:52;97257.29;;;25.21;36.90
34065;BME280;20339;49.754;20.158;2023-07-08T10:34:39;97254.91;;;25.27;37.03
34065;BME280;20339;49.754;20.158;2023-07-08T10:37:22;97257.60;;;25.30;37.04
34065;BME280;20339;49.754;20.158;2023-07-08T10:40:12;97256.55;;;25.15;36.96
34065;BME280;20339;49.754;20.158;2023-07-08T10:43:10;97253.38;;;25.08;36.89
34065;BME280;20339;49.754;20.158;2023-07-08T10:45:49;97253.98;;;25.10;36.97
34065;BME280;20339;49.754;20.158;2023-07-08T10:48:38;97246.23;;;25.10;36.61
34065;BME280;20339;49.754;20.158;2023-07-08T10:51:22;97248.27;;;25.08;36.85
34065;BME280;20339;49.754;20.158;2023-07-08T10:57:07;97236.75;;;25.26;37.44
34065;BME280;20339;49.754;20.158;2023-07-08T10:59:53;97231.30;;;25.36;37.73
34065;BME280;20339;49.754;20.158;2023-07-08T11:05:38;97225.20;;;25.55;37.98
34065;BME280;20339;49.754;20.158;2023-07-08T11:08:23;97220.56;;;25.61;37.42
34065;BME280;20339;49.754;20.158;2023-07-08T11:10:59;97220.04;;;25.66;37.56
34065;BME280;20339;49.754;20.158;2023-07-08T11:13:34;97220.08;;;25.68;37.79
34065;BME280;20339;49.754;20.158;2023-07-08T11:16:12;97217.34;;;25.70;37.68
34065;BME280;20339;49.754;20.158;2023-07-08T11:18:55;97217.19;;;25.70;37.79
34065;BME280;20339;49.754;20.158;2023-07-08T11:21:37;97219.10;;;25.65;37.39
34065;BME280;20339;49.754;20.158;2023-07-08T11:24:18;97215.88;;;25.63;37.19
34065;BME280;20339;49.754;20.158;2023-07-08T11:26:57;97214.98;;;25.57;37.25
34065;BME280;20339;49.754;20.158;2023-07-08T11:29:37;97211.19;;;25.57;38.08
34065;BME280;20339;49.754;20.158;2023-07-08T11:32:14;97210.73;;;25.66;37.90
34065;BME280;20339;49.754;20.158;2023-07-08T11:34:50;97210.35;;;25.58;37.18
34065;BME280;20339;49.754;20.158;2023-07-08T11:37:22;97207.36;;;25.56;37.64
34065;BME280;20339;49.754;20.158;2023-07-08T11:40:00;97200.77;;;25.64;37.70
34065;BME280;20339;49.754;20.158;2023-07-08T11:42:38;97204.41;;;25.64;37.27
34065;BME280;20339;49.754;20.158;2023-07-08T11:45:27;97203.73;;;25.69;38.05
34065;BME280;20339;49.754;20.158;2023-07-08T11:48:11;97202.48;;;25.81;38.15
34065;BME280;20339;49.754;20.158;2023-07-08T11:50:44;97200.30;;;25.87;37.64
34065;BME280;20339;49.754;20.158;2023-07-08T11:53:36;97196.41;;;25.86;37.76
34065;BME280;20339;49.754;20.158;2023-07-08T11:56:23;97194.92;;;25.85;38.13
34065;BME280;20339;49.754;20.158;2023-07-08T11:59:09;97194.48;;;25.95;38.35
34065;BME280;20339;49.754;20.158;2023-07-08T12:02:01;97188.55;;;26.03;37.82
34065;BME280;20339;49.754;20.158;2023-07-08T12:04:35;97193.22;;;26.00;37.09
34065;BME280;20339;49.754;20.158;2023-07-08T12:07:32;97193.33;;;25.96;37.29
34065;BME280;20339;49.754;20.158;2023-07-08T12:10:16;97189.28;;;25.81;36.86
34065;BME280;20339;49.754;20.158;2023-07-08T12:12:51;97186.13;;;25.69;36.64
34065;BME280;20339;49.754;20.158;2023-07-08T12:15:28;97184.98;;;25.58;36.62
34065;BME280;20339;49.754;20.158;2023-07-08T12:18:15;97180.83;;;25.48;36.88
34065;BME280;20339;49.754;20.158;2023-07-08T12:20:55;97179.34;;;25.55;37.34
34065;BME280;20339;49.754;20.158;2023-07-08T12:23:29;97175.28;;;25.58;37.03
34065;BME280;20339;49.754;20.158;2023-07-08T12:26:04;97174.13;;;25.62;37.28
34065;BME280;20339;49.754;20.158;2023-07-08T12:28:38;97181.64;;;25.58;36.93
34065;BME280;20339;49.754;20.158;2023-07-08T12:31:15;97175.61;;;25.46;36.85
34065;BME280;20339;49.754;20.158;2023-07-08T12:33:52;97172.27;;;25.36;36.47
34065;BME280;20339;49.754;20.158;2023-07-08T12:36:32;97174.99;;;25.33;36.53
34065;BME280;20339;49.754;20.158;2023-07-08T12:39:08;97170.99;;;25.30;36.58
34065;BME280;20339;49.754;20.158;2023-07-08T12:41:47;97171.88;;;25.27;36.81
34065;BME280;20339;49.754;20.158;2023-07-08T12:44:21;97169.36;;;25.34;37.41
34065;BME280;20339;49.754;20.158;2023-07-08T12:46:55;97172.17;;;25.31;36.77
34065;BME280;20339;49.754;20.158;2023-07-08T12:49:28;97169.09;;;25.23;36.68
34065;BME280;20339;49.754;20.158;2023-07-08T12:52:01;97174.73;;;25.18;36.56
34065;BME280;20339;49.754;20.158;2023-07-08T12:54:33;97170.79;;;25.23;37.33
34065;BME280;20339;49.754;20.158;2023-07-08T12:57:07;97166.17;;;25.34;37.17
34065;BME280;20339;49.754;20.158;2023-07-08T12:59:40;97170.50;;;25.36;37.09
34065;BME280;20339;49.754;20.158;2023-07-08T13:02:26;97166.33;;;25.42;37.79
34065;BME280;20339;49.754;20.158;2023-07-08T13:05:04;97163.89;;;25.45;37.06
34065;BME280;20339;49.754;20.158;2023-07-08T13:07:40;97160.08;;;25.44;36.96
34065;BME280;20339;49.754;20.158;2023-07-08T13:10:23;97158.79;;;25.37;36.87
34065;BME280;20339;49.754;20.158;2023-07-08T13:13:04;97154.81;;;25.35;36.78
34065;BME280;20339;49.754;20.158;2023-07-08T13:15:44;97149.44;;;25.38;36.69
34065;BME280;20339;49.754;20.158;2023-07-08T13:18:32;97152.21;;;25.42;36.98
34065;BME280;20339;49.754;20.158;2023-07-08T13:21:10;97150.31;;;25.45;36.94
34065;BME280;20339;49.754;20.158;2023-07-08T13:23:46;97154.83;;;25.50;37.08
34065;BME280;20339;49.754;20.158;2023-07-08T13:26:20;97147.70;;;25.46;36.98
34065;BME280;20339;49.754;20.158;2023-07-08T13:29:01;97146.01;;;25.51;37.25
34065;BME280;20339;49.754;20.158;2023-07-08T13:31:37;97143.52;;;25.56;37.12
34065;BME280;20339;49.754;20.158;2023-07-08T13:34:19;97145.42;;;25.53;36.63
34065;BME280;20339;49.754;20.158;2023-07-08T13:36:53;97146.20;;;25.49;36.59
34065;BME280;20339;49.754;20.158;2023-07-08T13:39:31;97144.02;;;25.49;36.54